Plentywood (PWD)
Plentywood, MT
Field Elevation: 2251
Lat: 48°47.32N  Long: 104°31.39W
CTAF/Unicom Freq: 122.8000
   
     For Weather-by-Phone, call 406-765-2149
Weather Advisories
1/30/2015 04:49 Z
Altimeter 30.23" Hg
Wind 110° @ 5 KT
Gusts --
Visibility 9 SM
Temperature -5° C (23° F)
Dewpoint -7° C (19° F)
Relative Humidity 87%
Density Altitude --
Condensation Altitude 3,100 feet
Wind Chill -9° C (16° F)
  Wind and Runways
Indicated Runway = 12
History
 
 
More Info
All DigiWx sites map
NOAA Forecast
 
Airport IQ 5010
(S59) Libby
(6S5) Ravalli County
 
about DigiWx
 
FAA Disclaimer: The data displayed is for advisory purposes only and is not to be used for flight planning or operations. For official data, please call 406-765-2149 to hear the current automated AWOS voice message.
  METAR PWD 300449Z AUTO 11005KT 9SM M05/M07 A3023